Park Ridge, Illinois
Current Conditions -  °F | °C
As of 1:06 AM on Friday 19 Dec 2014 (Local Time) from KORD Reporting Station
Overcast Overcast  
Wind Chill: 19°   Ceiling: 2500
Heat Index: 27°   Visibility: 9mi
Dew Point: 22°   Wind: 7mph
Humidity: 81%   Direction: 300°WNW
Pressure: 30.26"   Gusts: NA
Location:  42.01°N, 87.83°W
Report Text: KORD 190706Z 30006KT 9SM SCT012 OVC025 M03/M06 A3026 RMK AO2 T10281056
Loading
Personal Weather Stations






























Interactive Weather Map New forecast layout! Learn more

10-Day Weather Forecast

Advertisements
Track Severe Weather on mobile